sensor_id;sensor_type;location;lat;lon;timestamp;P1;durP1;ratioP1;P2;durP2;ratioP2
26311;SDS011;14019;56.964;24.016;2024-01-06T00:00:51;65.72;;;19.65;;
26311;SDS011;14019;56.964;24.016;2024-01-06T00:03:37;63.60;;;20.25;;
26311;SDS011;14019;56.964;24.016;2024-01-06T00:06:24;63.25;;;19.95;;
26311;SDS011;14019;56.964;24.016;2024-01-06T00:09:10;44.45;;;15.07;;
26311;SDS011;14019;56.964;24.016;2024-01-06T00:11:56;52.03;;;17.02;;
26311;SDS011;14019;56.964;24.016;2024-01-06T00:14:43;57.13;;;18.50;;
26311;SDS011;14019;56.964;24.016;2024-01-06T00:17:30;52.40;;;17.02;;
26311;SDS011;14019;56.964;24.016;2024-01-06T00:20:17;48.33;;;15.68;;
26311;SDS011;14019;56.964;24.016;2024-01-06T00:23:03;49.10;;;14.88;;
26311;SDS011;14019;56.964;24.016;2024-01-06T00:25:49;49.17;;;14.82;;
26311;SDS011;14019;56.964;24.016;2024-01-06T00:28:35;43.00;;;14.32;;
26311;SDS011;14019;56.964;24.016;2024-01-06T00:31:22;49.53;;;13.80;;
26311;SDS011;14019;56.964;24.016;2024-01-06T00:34:08;46.03;;;14.30;;
26311;SDS011;14019;56.964;24.016;2024-01-06T00:36:55;42.08;;;12.35;;
26311;SDS011;14019;56.964;24.016;2024-01-06T00:39:41;46.35;;;13.30;;
26311;SDS011;14019;56.964;24.016;2024-01-06T00:42:27;39.95;;;11.27;;
26311;SDS011;14019;56.964;24.016;2024-01-06T00:45:14;46.65;;;12.63;;
26311;SDS011;14019;56.964;24.016;2024-01-06T00:48:00;38.28;;;11.52;;
26311;SDS011;14019;56.964;24.016;2024-01-06T00:50:47;32.47;;;10.32;;
26311;SDS011;14019;56.964;24.016;2024-01-06T00:53:34;30.45;;;9.68;;
26311;SDS011;14019;56.964;24.016;2024-01-06T00:56:20;29.30;;;9.40;;
26311;SDS011;14019;56.964;24.016;2024-01-06T00:59:10;31.30;;;10.40;;
26311;SDS011;14019;56.964;24.016;2024-01-06T01:01:56;29.73;;;9.50;;
26311;SDS011;14019;56.964;24.016;2024-01-06T01:04:42;31.50;;;10.50;;
26311;SDS011;14019;56.964;24.016;2024-01-06T01:07:28;30.63;;;9.85;;
26311;SDS011;14019;56.964;24.016;2024-01-06T01:10:14;30.02;;;8.88;;
26311;SDS011;14019;56.964;24.016;2024-01-06T01:13:02;27.20;;;9.25;;
26311;SDS011;14019;56.964;24.016;2024-01-06T01:15:48;27.17;;;8.90;;
26311;SDS011;14019;56.964;24.016;2024-01-06T01:18:34;24.48;;;8.65;;
26311;SDS011;14019;56.964;24.016;2024-01-06T01:21:21;31.35;;;9.52;;
26311;SDS011;14019;56.964;24.016;2024-01-06T01:24:07;28.88;;;9.93;;
26311;SDS011;14019;56.964;24.016;2024-01-06T01:26:53;26.98;;;9.00;;
26311;SDS011;14019;56.964;24.016;2024-01-06T01:29:39;25.40;;;8.43;;
26311;SDS011;14019;56.964;24.016;2024-01-06T01:32:26;25.58;;;8.88;;
26311;SDS011;14019;56.964;24.016;2024-01-06T01:35:13;29.73;;;9.63;;
26311;SDS011;14019;56.964;24.016;2024-01-06T01:37:59;23.98;;;8.15;;
26311;SDS011;14019;56.964;24.016;2024-01-06T01:40:45;24.58;;;8.60;;
26311;SDS011;14019;56.964;24.016;2024-01-06T01:43:31;27.55;;;9.02;;
26311;SDS011;14019;56.964;24.016;2024-01-06T01:46:18;29.00;;;8.70;;
26311;SDS011;14019;56.964;24.016;2024-01-06T01:49:05;27.98;;;8.85;;
26311;SDS011;14019;56.964;24.016;2024-01-06T01:51:52;23.70;;;8.25;;
26311;SDS011;14019;56.964;24.016;2024-01-06T01:54:38;28.58;;;8.25;;
26311;SDS011;14019;56.964;24.016;2024-01-06T01:57:25;27.50;;;8.20;;
26311;SDS011;14019;56.964;24.016;2024-01-06T02:00:12;24.25;;;7.97;;
26311;SDS011;14019;56.964;24.016;2024-01-06T02:02:58;28.90;;;9.05;;
26311;SDS011;14019;56.964;24.016;2024-01-06T02:05:45;21.13;;;7.47;;
26311;SDS011;14019;56.964;24.016;2024-01-06T02:08:31;27.52;;;8.82;;
26311;SDS011;14019;56.964;24.016;2024-01-06T02:11:17;27.63;;;9.13;;
26311;SDS011;14019;56.964;24.016;2024-01-06T02:14:03;29.23;;;8.43;;
26311;SDS011;14019;56.964;24.016;2024-01-06T02:16:50;26.95;;;8.95;;
26311;SDS011;14019;56.964;24.016;2024-01-06T02:19:36;26.80;;;8.68;;
26311;SDS011;14019;56.964;24.016;2024-01-06T02:22:23;24.27;;;8.55;;
26311;SDS011;14019;56.964;24.016;2024-01-06T02:25:09;22.50;;;7.75;;
26311;SDS011;14019;56.964;24.016;2024-01-06T02:27:58;25.35;;;8.30;;
26311;SDS011;14019;56.964;24.016;2024-01-06T02:30:44;21.08;;;8.07;;
26311;SDS011;14019;56.964;24.016;2024-01-06T02:33:31;26.52;;;8.50;;
26311;SDS011;14019;56.964;24.016;2024-01-06T02:36:18;23.05;;;7.78;;
26311;SDS011;14019;56.964;24.016;2024-01-06T02:39:04;23.67;;;7.80;;
26311;SDS011;14019;56.964;24.016;2024-01-06T02:41:51;23.00;;;7.55;;
26311;SDS011;14019;56.964;24.016;2024-01-06T02:44:38;24.90;;;7.88;;
26311;SDS011;14019;56.964;24.016;2024-01-06T02:47:24;21.77;;;7.97;;
26311;SDS011;14019;56.964;24.016;2024-01-06T02:50:10;23.00;;;7.72;;
26311;SDS011;14019;56.964;24.016;2024-01-06T02:52:57;22.00;;;7.53;;
26311;SDS011;14019;56.964;24.016;2024-01-06T02:55:43;25.88;;;7.35;;
26311;SDS011;14019;56.964;24.016;2024-01-06T02:58:29;24.55;;;7.53;;
26311;SDS011;14019;56.964;24.016;2024-01-06T03:01:15;19.42;;;7.20;;
26311;SDS011;14019;56.964;24.016;2024-01-06T03:04:01;19.95;;;6.82;;
26311;SDS011;14019;56.964;24.016;2024-01-06T03:06:48;23.23;;;7.45;;
26311;SDS011;14019;56.964;24.016;2024-01-06T03:09:38;21.27;;;7.30;;
26311;SDS011;14019;56.964;24.016;2024-01-06T03:12:25;19.65;;;6.88;;
26311;SDS011;14019;56.964;24.016;2024-01-06T03:15:11;19.58;;;6.72;;
26311;SDS011;14019;56.964;24.016;2024-01-06T03:17:57;21.02;;;7.68;;
26311;SDS011;14019;56.964;24.016;2024-01-06T03:20:43;20.92;;;7.30;;
26311;SDS011;14019;56.964;24.016;2024-01-06T03:23:29;22.67;;;7.28;;
26311;SDS011;14019;56.964;24.016;2024-01-06T03:26:16;20.38;;;6.45;;
26311;SDS011;14019;56.964;24.016;2024-01-06T03:29:03;20.67;;;7.18;;
26311;SDS011;14019;56.964;24.016;2024-01-06T03:31:49;26.55;;;8.02;;
26311;SDS011;14019;56.964;24.016;2024-01-06T03:34:36;23.05;;;7.20;;
26311;SDS011;14019;56.964;24.016;2024-01-06T03:37:22;23.27;;;7.88;;
26311;SDS011;14019;56.964;24.016;2024-01-06T03:40:09;25.80;;;8.55;;
26311;SDS011;14019;56.964;24.016;2024-01-06T03:42:55;18.63;;;6.75;;
26311;SDS011;14019;56.964;24.016;2024-01-06T03:45:43;25.13;;;7.88;;
26311;SDS011;14019;56.964;24.016;2024-01-06T03:48:29;24.58;;;8.40;;
26311;SDS011;14019;56.964;24.016;2024-01-06T03:51:15;23.02;;;8.00;;
26311;SDS011;14019;56.964;24.016;2024-01-06T03:54:02;29.13;;;8.63;;
26311;SDS011;14019;56.964;24.016;2024-01-06T03:56:48;25.25;;;7.88;;
26311;SDS011;14019;56.964;24.016;2024-01-06T03:59:34;17.10;;;6.78;;
26311;SDS011;14019;56.964;24.016;2024-01-06T04:02:20;23.23;;;7.70;;
26311;SDS011;14019;56.964;24.016;2024-01-06T04:05:07;22.48;;;7.18;;
26311;SDS011;14019;56.964;24.016;2024-01-06T04:07:53;18.90;;;6.63;;
26311;SDS011;14019;56.964;24.016;2024-01-06T04:10:39;17.15;;;6.57;;
26311;SDS011;14019;56.964;24.016;2024-01-06T04:13:26;22.42;;;7.90;;
26311;SDS011;14019;56.964;24.016;2024-01-06T04:16:13;19.88;;;6.07;;
26311;SDS011;14019;56.964;24.016;2024-01-06T04:19:00;17.63;;;6.50;;
26311;SDS011;14019;56.964;24.016;2024-01-06T04:21:46;19.40;;;6.97;;
26311;SDS011;14019;56.964;24.016;2024-01-06T04:24:33;20.52;;;7.28;;
26311;SDS011;14019;56.964;24.016;2024-01-06T04:27:22;22.40;;;6.80;;
26311;SDS011;14019;56.964;24.016;2024-01-06T04:30:08;17.85;;;6.88;;
26311;SDS011;14019;56.964;24.016;2024-01-06T04:32:55;21.52;;;7.13;;
26311;SDS011;14019;56.964;24.016;2024-01-06T04:35:43;23.35;;;7.03;;
26311;SDS011;14019;56.964;24.016;2024-01-06T04:38:29;20.13;;;6.57;;
26311;SDS011;14019;56.964;24.016;2024-01-06T04:41:15;19.45;;;7.00;;
26311;SDS011;14019;56.964;24.016;2024-01-06T04:44:01;17.73;;;6.35;;
26311;SDS011;14019;56.964;24.016;2024-01-06T04:46:48;20.77;;;7.55;;
26311;SDS011;14019;56.964;24.016;2024-01-06T04:49:34;26.52;;;7.93;;
26311;SDS011;14019;56.964;24.016;2024-01-06T04:52:20;26.02;;;7.35;;
26311;SDS011;14019;56.964;24.016;2024-01-06T04:55:07;24.70;;;8.25;;
26311;SDS011;14019;56.964;24.016;2024-01-06T04:57:53;27.40;;;8.23;;
26311;SDS011;14019;56.964;24.016;2024-01-06T05:00:39;20.88;;;8.50;;
26311;SDS011;14019;56.964;24.016;2024-01-06T05:03:26;23.40;;;6.85;;
26311;SDS011;14019;56.964;24.016;2024-01-06T05:06:13;19.13;;;6.65;;
26311;SDS011;14019;56.964;24.016;2024-01-06T05:08:59;22.42;;;7.55;;
26311;SDS011;14019;56.964;24.016;2024-01-06T05:11:45;24.98;;;6.60;;
26311;SDS011;14019;56.964;24.016;2024-01-06T05:14:32;21.55;;;6.97;;
26311;SDS011;14019;56.964;24.016;2024-01-06T05:17:18;20.83;;;7.15;;
26311;SDS011;14019;56.964;24.016;2024-01-06T05:20:05;19.42;;;6.32;;
26311;SDS011;14019;56.964;24.016;2024-01-06T05:22:52;20.80;;;6.95;;
26311;SDS011;14019;56.964;24.016;2024-01-06T05:25:38;15.95;;;6.13;;
26311;SDS011;14019;56.964;24.016;2024-01-06T05:28:24;21.33;;;6.60;;
26311;SDS011;14019;56.964;24.016;2024-01-06T05:31:10;17.77;;;5.80;;
26311;SDS011;14019;56.964;24.016;2024-01-06T05:33:57;13.30;;;4.72;;
26311;SDS011;14019;56.964;24.016;2024-01-06T05:36:43;20.10;;;5.97;;
26311;SDS011;14019;56.964;24.016;2024-01-06T05:39:29;17.90;;;6.53;;
26311;SDS011;14019;56.964;24.016;2024-01-06T05:42:15;16.83;;;5.68;;
26311;SDS011;14019;56.964;24.016;2024-01-06T05:45:01;15.38;;;4.95;;
26311;SDS011;14019;56.964;24.016;2024-01-06T05:47:48;17.50;;;5.03;;
26311;SDS011;14019;56.964;24.016;2024-01-06T05:50:34;19.40;;;6.28;;
26311;SDS011;14019;56.964;24.016;2024-01-06T05:53:21;19.23;;;6.68;;
26311;SDS011;14019;56.964;24.016;2024-01-06T05:56:07;15.93;;;5.82;;
26311;SDS011;14019;56.964;24.016;2024-01-06T05:58:55;14.80;;;5.20;;
26311;SDS011;14019;56.964;24.016;2024-01-06T06:01:42;12.38;;;4.47;;
26311;SDS011;14019;56.964;24.016;2024-01-06T06:04:28;16.50;;;5.32;;
26311;SDS011;14019;56.964;24.016;2024-01-06T06:07:15;10.40;;;4.03;;
26311;SDS011;14019;56.964;24.016;2024-01-06T06:10:02;16.92;;;5.72;;
26311;SDS011;14019;56.964;24.016;2024-01-06T06:12:49;19.33;;;6.25;;
26311;SDS011;14019;56.964;24.016;2024-01-06T06:15:35;17.25;;;6.43;;
26311;SDS011;14019;56.964;24.016;2024-01-06T06:18:21;18.95;;;6.18;;
26311;SDS011;14019;56.964;24.016;2024-01-06T06:21:09;19.65;;;6.15;;
26311;SDS011;14019;56.964;24.016;2024-01-06T06:23:55;16.65;;;6.32;;
26311;SDS011;14019;56.964;24.016;2024-01-06T06:26:42;21.02;;;6.57;;
26311;SDS011;14019;56.964;24.016;2024-01-06T06:29:28;21.95;;;6.25;;
26311;SDS011;14019;56.964;24.016;2024-01-06T06:32:15;15.35;;;5.82;;
26311;SDS011;14019;56.964;24.016;2024-01-06T06:35:01;17.95;;;6.32;;
26311;SDS011;14019;56.964;24.016;2024-01-06T06:37:48;19.27;;;6.38;;
26311;SDS011;14019;56.964;24.016;2024-01-06T06:40:34;18.52;;;6.70;;
26311;SDS011;14019;56.964;24.016;2024-01-06T06:43:20;21.60;;;6.35;;
26311;SDS011;14019;56.964;24.016;2024-01-06T06:46:07;17.63;;;6.13;;
26311;SDS011;14019;56.964;24.016;2024-01-06T06:48:53;20.38;;;6.72;;
26311;SDS011;14019;56.964;24.016;2024-01-06T06:51:40;16.42;;;6.22;;
26311;SDS011;14019;56.964;24.016;2024-01-06T06:54:32;15.68;;;5.70;;
26311;SDS011;14019;56.964;24.016;2024-01-06T06:57:18;15.90;;;5.40;;
26311;SDS011;14019;56.964;24.016;2024-01-06T07:00:05;17.83;;;6.07;;
26311;SDS011;14019;56.964;24.016;2024-01-06T07:02:52;21.42;;;5.65;;
26311;SDS011;14019;56.964;24.016;2024-01-06T07:05:39;16.90;;;5.75;;
26311;SDS011;14019;56.964;24.016;2024-01-06T07:08:25;19.48;;;6.15;;
26311;SDS011;14019;56.964;24.016;2024-01-06T07:11:11;20.27;;;6.68;;
26311;SDS011;14019;56.964;24.016;2024-01-06T07:14:00;17.55;;;6.60;;
26311;SDS011;14019;56.964;24.016;2024-01-06T07:16:47;15.73;;;6.15;;
26311;SDS011;14019;56.964;24.016;2024-01-06T07:19:33;19.85;;;5.97;;
26311;SDS011;14019;56.964;24.016;2024-01-06T07:22:19;14.38;;;5.22;;
26311;SDS011;14019;56.964;24.016;2024-01-06T07:25:06;14.60;;;5.07;;
26311;SDS011;14019;56.964;24.016;2024-01-06T07:27:53;18.38;;;6.03;;
26311;SDS011;14019;56.964;24.016;2024-01-06T07:30:39;17.67;;;4.93;;
26311;SDS011;14019;56.964;24.016;2024-01-06T07:33:26;16.92;;;5.40;;
26311;SDS011;14019;56.964;24.016;2024-01-06T07:36:12;15.55;;;5.55;;
26311;SDS011;14019;56.964;24.016;2024-01-06T07:38:59;13.82;;;5.18;;
26311;SDS011;14019;56.964;24.016;2024-01-06T07:41:48;10.95;;;4.38;;
26311;SDS011;14019;56.964;24.016;2024-01-06T07:44:34;18.35;;;5.20;;
26311;SDS011;14019;56.964;24.016;2024-01-06T07:47:20;17.23;;;5.78;;
26311;SDS011;14019;56.964;24.016;2024-01-06T07:50:07;20.50;;;6.15;;
26311;SDS011;14019;56.964;24.016;2024-01-06T07:52:54;20.23;;;6.45;;
26311;SDS011;14019;56.964;24.016;2024-01-06T07:55:40;15.50;;;5.68;;
26311;SDS011;14019;56.964;24.016;2024-01-06T07:58:26;13.45;;;4.75;;
26311;SDS011;14019;56.964;24.016;2024-01-06T08:01:14;14.43;;;4.78;;
26311;SDS011;14019;56.964;24.016;2024-01-06T08:04:00;11.77;;;4.20;;
26311;SDS011;14019;56.964;24.016;2024-01-06T08:06:46;11.23;;;3.83;;
26311;SDS011;14019;56.964;24.016;2024-01-06T08:09:35;12.70;;;4.35;;
26311;SDS011;14019;56.964;24.016;2024-01-06T08:12:26;15.85;;;4.45;;
26311;SDS011;14019;56.964;24.016;2024-01-06T08:15:12;15.18;;;5.03;;
26311;SDS011;14019;56.964;24.016;2024-01-06T08:18:02;13.38;;;4.30;;
26311;SDS011;14019;56.964;24.016;2024-01-06T08:20:49;14.82;;;5.43;;
26311;SDS011;14019;56.964;24.016;2024-01-06T08:23:36;15.38;;;4.50;;
26311;SDS011;14019;56.964;24.016;2024-01-06T08:26:23;13.73;;;4.80;;
26311;SDS011;14019;56.964;24.016;2024-01-06T08:29:09;14.15;;;4.95;;
26311;SDS011;14019;56.964;24.016;2024-01-06T08:31:55;14.68;;;5.28;;
26311;SDS011;14019;56.964;24.016;2024-01-06T08:34:42;13.70;;;4.70;;
26311;SDS011;14019;56.964;24.016;2024-01-06T08:37:28;15.98;;;5.53;;
26311;SDS011;14019;56.964;24.016;2024-01-06T08:40:15;16.33;;;5.28;;
26311;SDS011;14019;56.964;24.016;2024-01-06T08:43:01;18.75;;;5.60;;
26311;SDS011;14019;56.964;24.016;2024-01-06T08:45:47;15.10;;;5.10;;
26311;SDS011;14019;56.964;24.016;2024-01-06T08:48:36;18.02;;;6.10;;
26311;SDS011;14019;56.964;24.016;2024-01-06T08:51:23;21.10;;;4.35;;
26311;SDS011;14019;56.964;24.016;2024-01-06T08:54:09;17.20;;;4.78;;
26311;SDS011;14019;56.964;24.016;2024-01-06T08:56:55;11.25;;;3.80;;
26311;SDS011;14019;56.964;24.016;2024-01-06T08:59:42;9.73;;;3.60;;
26311;SDS011;14019;56.964;24.016;2024-01-06T09:02:30;15.25;;;3.83;;
26311;SDS011;14019;56.964;24.016;2024-01-06T09:05:17;10.98;;;2.85;;
26311;SDS011;14019;56.964;24.016;2024-01-06T09:08:03;14.57;;;4.15;;
26311;SDS011;14019;56.964;24.016;2024-01-06T09:10:50;11.88;;;3.72;;
26311;SDS011;14019;56.964;24.016;2024-01-06T09:13:42;11.18;;;3.42;;
26311;SDS011;14019;56.964;24.016;2024-01-06T09:16:28;11.18;;;3.25;;
26311;SDS011;14019;56.964;24.016;2024-01-06T09:19:15;9.27;;;3.63;;
26311;SDS011;14019;56.964;24.016;2024-01-06T09:22:01;8.60;;;3.65;;
26311;SDS011;14019;56.964;24.016;2024-01-06T09:24:48;9.65;;;2.97;;
26311;SDS011;14019;56.964;24.016;2024-01-06T09:27:34;12.73;;;3.90;;
26311;SDS011;14019;56.964;24.016;2024-01-06T09:30:22;9.05;;;3.38;;
26311;SDS011;14019;56.964;24.016;2024-01-06T09:33:10;16.20;;;4.47;;
26311;SDS011;14019;56.964;24.016;2024-01-06T09:36:01;13.57;;;4.63;;
26311;SDS011;14019;56.964;24.016;2024-01-06T09:38:47;11.82;;;4.05;;
26311;SDS011;14019;56.964;24.016;2024-01-06T09:41:35;13.77;;;4.50;;
26311;SDS011;14019;56.964;24.016;2024-01-06T09:44:21;12.07;;;4.10;;
26311;SDS011;14019;56.964;24.016;2024-01-06T09:47:08;14.50;;;4.50;;
26311;SDS011;14019;56.964;24.016;2024-01-06T09:49:56;12.35;;;4.43;;
26311;SDS011;14019;56.964;24.016;2024-01-06T09:52:45;13.48;;;4.10;;
26311;SDS011;14019;56.964;24.016;2024-01-06T09:55:39;12.10;;;3.63;;
26311;SDS011;14019;56.964;24.016;2024-01-06T09:58:26;12.13;;;3.88;;
26311;SDS011;14019;56.964;24.016;2024-01-06T10:01:15;13.55;;;4.25;;
26311;SDS011;14019;56.964;24.016;2024-01-06T10:04:03;13.65;;;3.45;;
26311;SDS011;14019;56.964;24.016;2024-01-06T10:06:50;15.85;;;3.85;;
26311;SDS011;14019;56.964;24.016;2024-01-06T10:09:36;12.55;;;3.42;;
26311;SDS011;14019;56.964;24.016;2024-01-06T10:12:24;10.45;;;4.18;;
26311;SDS011;14019;56.964;24.016;2024-01-06T10:15:14;12.70;;;4.20;;
26311;SDS011;14019;56.964;24.016;2024-01-06T10:18:10;15.55;;;4.60;;
26311;SDS011;14019;56.964;24.016;2024-01-06T10:20:58;12.90;;;4.72;;
26311;SDS011;14019;56.964;24.016;2024-01-06T10:23:44;15.80;;;4.80;;
26311;SDS011;14019;56.964;24.016;2024-01-06T10:26:31;12.45;;;3.90;;
26311;SDS011;14019;56.964;24.016;2024-01-06T10:29:18;13.70;;;4.38;;
26311;SDS011;14019;56.964;24.016;2024-01-06T10:32:04;11.90;;;4.65;;
26311;SDS011;14019;56.964;24.016;2024-01-06T10:34:51;12.77;;;4.70;;
26311;SDS011;14019;56.964;24.016;2024-01-06T10:37:38;15.00;;;5.15;;
26311;SDS011;14019;56.964;24.016;2024-01-06T10:40:33;16.80;;;5.10;;
26311;SDS011;14019;56.964;24.016;2024-01-06T10:43:19;12.98;;;4.32;;
26311;SDS011;14019;56.964;24.016;2024-01-06T10:46:16;10.43;;;3.75;;
26311;SDS011;14019;56.964;24.016;2024-01-06T10:49:06;14.88;;;4.10;;
26311;SDS011;14019;56.964;24.016;2024-01-06T10:51:58;12.20;;;4.53;;
26311;SDS011;14019;56.964;24.016;2024-01-06T10:54:44;24.48;;;5.47;;
26311;SDS011;14019;56.964;24.016;2024-01-06T10:57:37;20.08;;;4.70;;
26311;SDS011;14019;56.964;24.016;2024-01-06T11:00:24;16.27;;;5.03;;
26311;SDS011;14019;56.964;24.016;2024-01-06T11:03:10;11.13;;;4.10;;
26311;SDS011;14019;56.964;24.016;2024-01-06T11:05:58;16.65;;;3.90;;
26311;SDS011;14019;56.964;24.016;2024-01-06T11:11:35;17.10;;;5.20;;
26311;SDS011;14019;56.964;24.016;2024-01-06T11:14:26;12.23;;;3.85;;
26311;SDS011;14019;56.964;24.016;2024-01-06T11:17:13;10.82;;;3.40;;
26311;SDS011;14019;56.964;24.016;2024-01-06T11:20:27;14.43;;;3.60;;
26311;SDS011;14019;56.964;24.016;2024-01-06T11:23:17;15.90;;;4.90;;
26311;SDS011;14019;56.964;24.016;2024-01-06T11:26:06;26.98;;;7.50;;
26311;SDS011;14019;56.964;24.016;2024-01-06T11:28:52;22.40;;;6.80;;
26311;SDS011;14019;56.964;24.016;2024-01-06T11:31:40;28.38;;;7.60;;
26311;SDS011;14019;56.964;24.016;2024-01-06T11:34:27;14.52;;;4.57;;
26311;SDS011;14019;56.964;24.016;2024-01-06T11:38:06;15.63;;;4.47;;
26311;SDS011;14019;56.964;24.016;2024-01-06T11:40:25;15.57;;;4.13;;
26311;SDS011;14019;56.964;24.016;2024-01-06T11:43:11;11.40;;;3.95;;
26311;SDS011;14019;56.964;24.016;2024-01-06T11:45:58;11.55;;;3.17;;
26311;SDS011;14019;56.964;24.016;2024-01-06T11:48:46;11.35;;;3.35;;
26311;SDS011;14019;56.964;24.016;2024-01-06T11:51:36;8.63;;;3.47;;
26311;SDS011;14019;56.964;24.016;2024-01-06T11:54:23;15.35;;;3.88;;
26311;SDS011;14019;56.964;24.016;2024-01-06T11:57:09;15.00;;;4.50;;
26311;SDS011;14019;56.964;24.016;2024-01-06T11:59:55;15.15;;;4.43;;
26311;SDS011;14019;56.964;24.016;2024-01-06T12:02:42;18.13;;;5.55;;
26311;SDS011;14019;56.964;24.016;2024-01-06T12:05:29;12.27;;;4.53;;
26311;SDS011;14019;56.964;24.016;2024-01-06T12:08:15;12.80;;;5.07;;
26311;SDS011;14019;56.964;24.016;2024-01-06T12:11:05;15.45;;;4.75;;
26311;SDS011;14019;56.964;24.016;2024-01-06T12:13:52;13.98;;;4.70;;
26311;SDS011;14019;56.964;24.016;2024-01-06T12:16:38;14.82;;;4.72;;
26311;SDS011;14019;56.964;24.016;2024-01-06T12:19:24;12.40;;;4.53;;
26311;SDS011;14019;56.964;24.016;2024-01-06T12:22:11;14.68;;;4.97;;
26311;SDS011;14019;56.964;24.016;2024-01-06T12:25:02;16.15;;;4.78;;
26311;SDS011;14019;56.964;24.016;2024-01-06T12:27:51;14.02;;;4.07;;
26311;SDS011;14019;56.964;24.016;2024-01-06T12:30:39;13.60;;;4.28;;
26311;SDS011;14019;56.964;24.016;2024-01-06T12:33:25;14.48;;;4.18;;
26311;SDS011;14019;56.964;24.016;2024-01-06T12:36:11;15.35;;;3.90;;
26311;SDS011;14019;56.964;24.016;2024-01-06T12:39:11;14.00;;;4.15;;
26311;SDS011;14019;56.964;24.016;2024-01-06T12:42:02;17.63;;;5.03;;
26311;SDS011;14019;56.964;24.016;2024-01-06T12:44:48;13.73;;;4.68;;
26311;SDS011;14019;56.964;24.016;2024-01-06T12:47:35;12.50;;;4.20;;
26311;SDS011;14019;56.964;24.016;2024-01-06T12:50:21;14.57;;;4.28;;
26311;SDS011;14019;56.964;24.016;2024-01-06T12:53:08;9.82;;;3.65;;
26311;SDS011;14019;56.964;24.016;2024-01-06T12:55:54;14.07;;;4.63;;
26311;SDS011;14019;56.964;24.016;2024-01-06T12:58:40;22.70;;;5.32;;
26311;SDS011;14019;56.964;24.016;2024-01-06T13:01:27;14.75;;;5.00;;
26311;SDS011;14019;56.964;24.016;2024-01-06T13:04:13;15.25;;;5.45;;
26311;SDS011;14019;56.964;24.016;2024-01-06T13:07:00;13.55;;;5.05;;
26311;SDS011;14019;56.964;24.016;2024-01-06T13:09:47;12.38;;;4.78;;
26311;SDS011;14019;56.964;24.016;2024-01-06T13:12:34;16.27;;;4.70;;
26311;SDS011;14019;56.964;24.016;2024-01-06T13:15:21;16.23;;;4.53;;
26311;SDS011;14019;56.964;24.016;2024-01-06T13:18:07;19.42;;;5.18;;
26311;SDS011;14019;56.964;24.016;2024-01-06T13:20:54;31.77;;;7.93;;
26311;SDS011;14019;56.964;24.016;2024-01-06T13:23:40;30.77;;;7.68;;
26311;SDS011;14019;56.964;24.016;2024-01-06T13:26:27;28.02;;;6.70;;
26311;SDS011;14019;56.964;24.016;2024-01-06T13:29:13;18.75;;;5.53;;
26311;SDS011;14019;56.964;24.016;2024-01-06T13:31:59;22.45;;;6.13;;
26311;SDS011;14019;56.964;24.016;2024-01-06T13:34:46;17.38;;;4.55;;
26311;SDS011;14019;56.964;24.016;2024-01-06T13:37:33;16.27;;;5.10;;
26311;SDS011;14019;56.964;24.016;2024-01-06T13:40:19;24.38;;;6.20;;
26311;SDS011;14019;56.964;24.016;2024-01-06T13:43:07;13.80;;;3.72;;
26311;SDS011;14019;56.964;24.016;2024-01-06T13:45:54;22.17;;;5.97;;
26311;SDS011;14019;56.964;24.016;2024-01-06T13:48:41;20.13;;;4.70;;
26311;SDS011;14019;56.964;24.016;2024-01-06T13:51:28;15.85;;;5.28;;
26311;SDS011;14019;56.964;24.016;2024-01-06T13:54:15;17.73;;;4.97;;
26311;SDS011;14019;56.964;24.016;2024-01-06T13:57:04;21.48;;;6.10;;
26311;SDS011;14019;56.964;24.016;2024-01-06T13:59:50;17.25;;;5.13;;
26311;SDS011;14019;56.964;24.016;2024-01-06T14:02:37;15.90;;;5.43;;
26311;SDS011;14019;56.964;24.016;2024-01-06T14:05:24;16.15;;;5.32;;
26311;SDS011;14019;56.964;24.016;2024-01-06T14:08:10;20.98;;;6.78;;
26311;SDS011;14019;56.964;24.016;2024-01-06T14:10:57;25.35;;;7.57;;
26311;SDS011;14019;56.964;24.016;2024-01-06T14:13:43;22.67;;;7.18;;
26311;SDS011;14019;56.964;24.016;2024-01-06T14:16:34;23.13;;;7.97;;
26311;SDS011;14019;56.964;24.016;2024-01-06T14:19:21;29.85;;;8.85;;
26311;SDS011;14019;56.964;24.016;2024-01-06T14:22:07;29.95;;;8.43;;
26311;SDS011;14019;56.964;24.016;2024-01-06T14:24:53;34.30;;;8.27;;
26311;SDS011;14019;56.964;24.016;2024-01-06T14:27:40;30.90;;;9.80;;
26311;SDS011;14019;56.964;24.016;2024-01-06T14:30:26;23.65;;;7.65;;
26311;SDS011;14019;56.964;24.016;2024-01-06T14:33:16;31.35;;;10.50;;
26311;SDS011;14019;56.964;24.016;2024-01-06T14:36:04;29.30;;;8.88;;
26311;SDS011;14019;56.964;24.016;2024-01-06T14:38:51;26.07;;;7.80;;
26311;SDS011;14019;56.964;24.016;2024-01-06T14:41:38;31.95;;;9.95;;
26311;SDS011;14019;56.964;24.016;2024-01-06T14:44:24;29.25;;;10.05;;
26311;SDS011;14019;56.964;24.016;2024-01-06T14:47:12;33.95;;;10.70;;
26311;SDS011;14019;56.964;24.016;2024-01-06T14:49:59;39.47;;;11.97;;
26311;SDS011;14019;56.964;24.016;2024-01-06T14:52:46;39.28;;;12.07;;
26311;SDS011;14019;56.964;24.016;2024-01-06T14:55:33;33.17;;;10.68;;
26311;SDS011;14019;56.964;24.016;2024-01-06T14:58:19;41.88;;;12.02;;
26311;SDS011;14019;56.964;24.016;2024-01-06T15:01:05;37.33;;;10.23;;
26311;SDS011;14019;56.964;24.016;2024-01-06T15:03:52;32.20;;;10.30;;
26311;SDS011;14019;56.964;24.016;2024-01-06T15:06:41;25.20;;;8.63;;
26311;SDS011;14019;56.964;24.016;2024-01-06T15:09:27;34.55;;;9.40;;
26311;SDS011;14019;56.964;24.016;2024-01-06T15:12:14;26.90;;;8.57;;
26311;SDS011;14019;56.964;24.016;2024-01-06T15:15:00;36.50;;;9.25;;
26311;SDS011;14019;56.964;24.016;2024-01-06T15:17:46;35.67;;;10.00;;
26311;SDS011;14019;56.964;24.016;2024-01-06T15:20:32;39.03;;;10.07;;
26311;SDS011;14019;56.964;24.016;2024-01-06T15:23:19;34.90;;;10.40;;
26311;SDS011;14019;56.964;24.016;2024-01-06T15:26:05;31.00;;;8.70;;
26311;SDS011;14019;56.964;24.016;2024-01-06T15:28:52;31.40;;;9.50;;
26311;SDS011;14019;56.964;24.016;2024-01-06T15:31:40;33.07;;;9.90;;
26311;SDS011;14019;56.964;24.016;2024-01-06T15:34:27;34.23;;;9.87;;
26311;SDS011;14019;56.964;24.016;2024-01-06T15:37:14;37.87;;;11.57;;
26311;SDS011;14019;56.964;24.016;2024-01-06T15:40:01;33.03;;;10.63;;
26311;SDS011;14019;56.964;24.016;2024-01-06T15:42:47;35.57;;;9.10;;
26311;SDS011;14019;56.964;24.016;2024-01-06T15:45:34;37.70;;;11.73;;
26311;SDS011;14019;56.964;24.016;2024-01-06T15:48:21;38.17;;;11.87;;
26311;SDS011;14019;56.964;24.016;2024-01-06T15:51:10;30.03;;;8.27;;
26311;SDS011;14019;56.964;24.016;2024-01-06T15:53:56;27.33;;;8.63;;
26311;SDS011;14019;56.964;24.016;2024-01-06T15:56:44;31.73;;;8.90;;
26311;SDS011;14019;56.964;24.016;2024-01-06T15:59:30;24.20;;;7.83;;
26311;SDS011;14019;56.964;24.016;2024-01-06T16:02:16;46.37;;;13.33;;
26311;SDS011;14019;56.964;24.016;2024-01-06T16:05:03;30.83;;;11.53;;
26311;SDS011;14019;56.964;24.016;2024-01-06T16:07:50;52.47;;;15.97;;
26311;SDS011;14019;56.964;24.016;2024-01-06T16:10:41;34.93;;;9.63;;
26311;SDS011;14019;56.964;24.016;2024-01-06T16:13:27;35.93;;;12.37;;
26311;SDS011;14019;56.964;24.016;2024-01-06T16:16:14;28.97;;;9.60;;
26311;SDS011;14019;56.964;24.016;2024-01-06T16:19:01;30.73;;;9.17;;